Mercury — 3FFC7 — position and weather

sailwx.info

Track history (hours):
 
Tides and Currents Weather Stations Pressure Air Temp Water Temp Dewpoint Dewpoint Depression Visibility Wind Speed Wind Dir Waves Ship Positions

Mercury

Operator: Royal Caribbean Cruises Ltd

Last reported at 2017-Jun-09 22:16 UTC. Time now 2017-Jun-25 08:41 UTC.
Position N 01°19' E 103°18'.
Warning: this ship's position is 15 days out of date.

Length 199 m; draft 8.8 m.

Type: Cargo ship. MMSI: 371862000.

Date/timePositionNaut miles runAvg speedWind from/ knotsBaromVisibWave heightAir tempDewpointWater temp
2017-Jun-09 22:16N 01°19' E 103°18'518.9
2017-Jun-09 22:01N 01°15' E 103°22'918.4
2017-Jun-09 21:30N 01°13' E 103°31'714.6
2017-Jun-09 21:00N 01°12' E 103°38'4 7.5
2017-Jun-09 20:30N 01°14' E 103°42'4 8.1
2017-Jun-09 20:01N 01°16' E 103°45'1 2.2
2017-Jun-09 19:30N 01°17' E 103°45'0 0.1
2017-Jun-09 19:00N 01°17' E 103°45'0 0.0
2017-Jun-09 18:30N 01°17' E 103°45'0 0.0
2017-Jun-09 18:00N 01°17' E 103°45'0 0.0
2017-Jun-09 17:30N 01°17' E 103°45'0 0.0
2017-Jun-09 16:57N 01°17' E 103°45'0 0.0
2017-Jun-09 16:30N 01°17' E 103°45'0 0.0
2017-Jun-09 15:57N 01°17' E 103°45'0 0.0
2017-Jun-09 15:30N 01°17' E 103°45'0 0.0
2017-Jun-09 14:57N 01°17' E 103°45'0 0.0
2017-Jun-09 14:30N 01°17' E 103°45'0 0.0
2017-Jun-09 13:21N 01°17' E 103°45'0 0.0
2017-Jun-09 12:57N 01°17' E 103°45'0 0.0
2017-Jun-09 12:30N 01°17' E 103°45'0 0.0
2017-Jun-09 12:00N 01°17' E 103°45'0 0.0
2017-Jun-09 11:30N 01°17' E 103°45'0 0.0
2017-Jun-09 11:00N 01°17' E 103°45'0 0.0
2017-Jun-09 10:30N 01°17' E 103°45'0 0.0
2017-Jun-09 09:54N 01°17' E 103°45'0 0.0
2017-Jun-09 09:30N 01°17' E 103°45'0 0.0
2017-Jun-09 08:57N 01°17' E 103°45'0 0.0
2017-Jun-09 08:30N 01°17' E 103°45'0 0.0
2017-Jun-09 08:00N 01°17' E 103°45'0 0.0
2017-Jun-09 07:30N 01°17' E 103°45'0 0.0
2017-Jun-09 07:00N 01°17' E 103°45'0 0.0
2017-Jun-09 06:30N 01°17' E 103°45'0 0.0
2017-Jun-09 06:00N 01°17' E 103°45'0 0.0
2017-Jun-09 05:30N 01°17' E 103°45'0 0.0
2017-Jun-09 04:57N 01°17' E 103°45'0 0.0
2017-Jun-09 04:30N 01°17' E 103°45'0 0.0
2017-Jun-09 04:00N 01°17' E 103°45'0 0.0
2017-Jun-09 03:30N 01°17' E 103°45'0 0.0
2017-Jun-09 03:00N 01°17' E 103°45'0 0.0
2017-Jun-09 02:27N 01°17' E 103°45'0 0.0
2017-Jun-09 02:00N 01°17' E 103°45'0 0.0
2017-Jun-09 01:30N 01°17' E 103°45'0 0.0
2017-Jun-09 01:00N 01°17' E 103°45'0 0.0
2017-Jun-09 00:27N 01°17' E 103°45'0 0.0
2017-Jun-09 00:00N 01°17' E 103°45'0 0.0
2017-Jun-08 23:30N 01°17' E 103°45'1 1.6
2017-Jun-08 23:00N 01°16' E 103°45'3 6.8
2017-Jun-08 22:30N 01°14' E 103°48'2 3.5
2017-Jun-08 21:59N 01°13' E 103°49'0 0.1
2017-Jun-08 21:29N 01°13' E 103°49'0 0.0
2017-Jun-08 20:50N 01°13' E 103°49'0 0.0
2017-Jun-08 20:20N 01°13' E 103°49'0 0.0
2017-Jun-08 19:53N 01°13' E 103°49'0 0.0
2017-Jun-08 19:26N 01°13' E 103°49'0 0.0
2017-Jun-08 18:53N 01°13' E 103°49'0 0.0
2017-Jun-08 18:29N 01°13' E 103°49'0 0.0
2017-Jun-08 17:44N 01°13' E 103°49'0 0.3
2017-Jun-08 17:29N 01°13' E 103°49'0 0.1
2017-Jun-08 16:50N 01°13' E 103°49'0 0.2
2017-Jun-08 16:20N 01°13' E 103°49'0 0.0
2017-Jun-08 15:53N 01°13' E 103°49'0 0.0
2017-Jun-08 15:27N 01°13' E 103°49'0 0.0
2017-Jun-08 14:59N 01°13' E 103°49'0 0.2
2017-Jun-08 14:31N 01°13' E 103°49'7 7.1
2017-Jun-08 13:31N 01°14' E 103°56'3 5.9
2017-Jun-08 13:00N 01°15' E 103°59'3 5.8
2017-Jun-08 12:30N 01°16' E 104°02'3 5.6
2017-Jun-08 11:54N 01°16' E 104°05'7 9.8
2017-Jun-08 11:13N 01°17' E 104°12'  
Track history (hours):
 
Tides and Currents Weather Stations Pressure Air Temp Water Temp Dewpoint Dewpoint Depression Visibility Wind Speed Wind Dir Waves Ship Positions

Mercury

Operator: Royal Caribbean Cruises Ltd

Last reported at 2017-Jun-09 22:16 UTC. Time now 2017-Jun-25 08:41 UTC.
Position N 01°19' E 103°18'.
Warning: this ship's position is 15 days out of date.

Length 199 m; draft 8.8 m.

Type: Cargo ship. MMSI: 371862000.

Date/timePositionNaut miles runAvg speedWind from/ knotsBaromVisibWave heightAir tempDewpointWater temp
2017-Jun-09 22:16N 01°19' E 103°18'518.9
2017-Jun-09 22:01N 01°15' E 103°22'918.4
2017-Jun-09 21:30N 01°13' E 103°31'714.6
2017-Jun-09 21:00N 01°12' E 103°38'4 7.5
2017-Jun-09 20:30N 01°14' E 103°42'4 8.1
2017-Jun-09 20:01N 01°16' E 103°45'1 2.2
2017-Jun-09 19:30N 01°17' E 103°45'0 0.1
2017-Jun-09 19:00N 01°17' E 103°45'0 0.0
2017-Jun-09 18:30N 01°17' E 103°45'0 0.0
2017-Jun-09 18:00N 01°17' E 103°45'0 0.0
2017-Jun-09 17:30N 01°17' E 103°45'0 0.0
2017-Jun-09 16:57N 01°17' E 103°45'0 0.0
2017-Jun-09 16:30N 01°17' E 103°45'0 0.0
2017-Jun-09 15:57N 01°17' E 103°45'0 0.0
2017-Jun-09 15:30N 01°17' E 103°45'0 0.0
2017-Jun-09 14:57N 01°17' E 103°45'0 0.0
2017-Jun-09 14:30N 01°17' E 103°45'0 0.0
2017-Jun-09 13:21N 01°17' E 103°45'0 0.0
2017-Jun-09 12:57N 01°17' E 103°45'0 0.0
2017-Jun-09 12:30N 01°17' E 103°45'0 0.0
2017-Jun-09 12:00N 01°17' E 103°45'0 0.0
2017-Jun-09 11:30N 01°17' E 103°45'0 0.0
2017-Jun-09 11:00N 01°17' E 103°45'0 0.0
2017-Jun-09 10:30N 01°17' E 103°45'0 0.0
2017-Jun-09 09:54N 01°17' E 103°45'0 0.0
2017-Jun-09 09:30N 01°17' E 103°45'0 0.0
2017-Jun-09 08:57N 01°17' E 103°45'0 0.0
2017-Jun-09 08:30N 01°17' E 103°45'0 0.0
2017-Jun-09 08:00N 01°17' E 103°45'0 0.0
2017-Jun-09 07:30N 01°17' E 103°45'0 0.0
2017-Jun-09 07:00N 01°17' E 103°45'0 0.0
2017-Jun-09 06:30N 01°17' E 103°45'0 0.0
2017-Jun-09 06:00N 01°17' E 103°45'0 0.0
2017-Jun-09 05:30N 01°17' E 103°45'0 0.0
2017-Jun-09 04:57N 01°17' E 103°45'0 0.0
2017-Jun-09 04:30N 01°17' E 103°45'0 0.0
2017-Jun-09 04:00N 01°17' E 103°45'0 0.0
2017-Jun-09 03:30N 01°17' E 103°45'0 0.0
2017-Jun-09 03:00N 01°17' E 103°45'0 0.0
2017-Jun-09 02:27N 01°17' E 103°45'0 0.0
2017-Jun-09 02:00N 01°17' E 103°45'0 0.0
2017-Jun-09 01:30N 01°17' E 103°45'0 0.0
2017-Jun-09 01:00N 01°17' E 103°45'0 0.0
2017-Jun-09 00:27N 01°17' E 103°45'0 0.0
2017-Jun-09 00:00N 01°17' E 103°45'0 0.0
2017-Jun-08 23:30N 01°17' E 103°45'1 1.6
2017-Jun-08 23:00N 01°16' E 103°45'3 6.8
2017-Jun-08 22:30N 01°14' E 103°48'2 3.5
2017-Jun-08 21:59N 01°13' E 103°49'0 0.1
2017-Jun-08 21:29N 01°13' E 103°49'0 0.0
2017-Jun-08 20:50N 01°13' E 103°49'0 0.0
2017-Jun-08 20:20N 01°13' E 103°49'0 0.0
2017-Jun-08 19:53N 01°13' E 103°49'0 0.0
2017-Jun-08 19:26N 01°13' E 103°49'0 0.0
2017-Jun-08 18:53N 01°13' E 103°49'0 0.0
2017-Jun-08 18:29N 01°13' E 103°49'0 0.0
2017-Jun-08 17:44N 01°13' E 103°49'0 0.3
2017-Jun-08 17:29N 01°13' E 103°49'0 0.1
2017-Jun-08 16:50N 01°13' E 103°49'0 0.2
2017-Jun-08 16:20N 01°13' E 103°49'0 0.0
2017-Jun-08 15:53N 01°13' E 103°49'0 0.0
2017-Jun-08 15:27N 01°13' E 103°49'0 0.0
2017-Jun-08 14:59N 01°13' E 103°49'0 0.2
2017-Jun-08 14:31N 01°13' E 103°49'7 7.1
2017-Jun-08 13:31N 01°14' E 103°56'3 5.9
2017-Jun-08 13:00N 01°15' E 103°59'3 5.8
2017-Jun-08 12:30N 01°16' E 104°02'3 5.6
2017-Jun-08 11:54N 01°16' E 104°05'7 9.8
2017-Jun-08 11:13N 01°17' E 104°12'  

Dump ship's entire track history